sensor_id;sensor_type;location;lat;lon;timestamp;temperature;humidity
33673;DHT22;20011;51.510;9.942;2024-03-08T00:00:12;3.50;99.90
33673;DHT22;20011;51.510;9.942;2024-03-08T00:02:42;3.30;99.90
33673;DHT22;20011;51.510;9.942;2024-03-08T00:05:09;3.50;99.90
33673;DHT22;20011;51.510;9.942;2024-03-08T00:07:37;3.30;99.90
33673;DHT22;20011;51.510;9.942;2024-03-08T00:10:05;3.20;99.90
33673;DHT22;20011;51.510;9.942;2024-03-08T00:12:34;3.20;99.90
33673;DHT22;20011;51.510;9.942;2024-03-08T00:15:01;3.30;99.90
33673;DHT22;20011;51.510;9.942;2024-03-08T00:17:28;3.20;99.90
33673;DHT22;20011;51.510;9.942;2024-03-08T00:19:55;3.20;99.90
33673;DHT22;20011;51.510;9.942;2024-03-08T00:22:22;3.30;99.90
33673;DHT22;20011;51.510;9.942;2024-03-08T00:24:49;3.40;99.90
33673;DHT22;20011;51.510;9.942;2024-03-08T00:27:17;3.00;99.90
33673;DHT22;20011;51.510;9.942;2024-03-08T00:29:48;3.20;99.90
33673;DHT22;20011;51.510;9.942;2024-03-08T00:32:15;3.20;99.90
33673;DHT22;20011;51.510;9.942;2024-03-08T00:34:43;3.20;99.90
33673;DHT22;20011;51.510;9.942;2024-03-08T00:37:10;3.30;99.90
33673;DHT22;20011;51.510;9.942;2024-03-08T00:39:37;3.60;99.90
33673;DHT22;20011;51.510;9.942;2024-03-08T00:42:04;3.40;99.90
33673;DHT22;20011;51.510;9.942;2024-03-08T00:44:31;3.60;99.90
33673;DHT22;20011;51.510;9.942;2024-03-08T00:46:59;3.60;99.90
33673;DHT22;20011;51.510;9.942;2024-03-08T00:49:26;3.50;99.90
33673;DHT22;20011;51.510;9.942;2024-03-08T00:51:53;3.60;99.90
33673;DHT22;20011;51.510;9.942;2024-03-08T00:54:20;3.60;99.90
33673;DHT22;20011;51.510;9.942;2024-03-08T00:56:47;3.60;99.90
33673;DHT22;20011;51.510;9.942;2024-03-08T00:59:14;3.30;99.90
33673;DHT22;20011;51.510;9.942;2024-03-08T01:01:41;3.20;99.90
33673;DHT22;20011;51.510;9.942;2024-03-08T01:04:08;3.20;99.90
33673;DHT22;20011;51.510;9.942;2024-03-08T01:06:35;3.10;99.90
33673;DHT22;20011;51.510;9.942;2024-03-08T01:09:02;3.20;99.90
33673;DHT22;20011;51.510;9.942;2024-03-08T01:11:29;3.30;99.90
33673;DHT22;20011;51.510;9.942;2024-03-08T01:13:57;3.50;99.90
33673;DHT22;20011;51.510;9.942;2024-03-08T01:16:24;3.30;99.90
33673;DHT22;20011;51.510;9.942;2024-03-08T01:18:51;3.40;99.90
33673;DHT22;20011;51.510;9.942;2024-03-08T01:21:18;3.60;99.90
33673;DHT22;20011;51.510;9.942;2024-03-08T01:23:45;3.40;99.90
33673;DHT22;20011;51.510;9.942;2024-03-08T01:26:12;3.40;99.90
33673;DHT22;20011;51.510;9.942;2024-03-08T01:28:41;3.30;99.90
33673;DHT22;20011;51.510;9.942;2024-03-08T01:31:08;3.30;99.90
33673;DHT22;20011;51.510;9.942;2024-03-08T01:33:35;3.50;99.90
33673;DHT22;20011;51.510;9.942;2024-03-08T01:36:02;3.20;99.90
33673;DHT22;20011;51.510;9.942;2024-03-08T01:38:30;3.30;99.90
33673;DHT22;20011;51.510;9.942;2024-03-08T01:40:57;3.30;99.90
33673;DHT22;20011;51.510;9.942;2024-03-08T01:43:28;3.40;99.90
33673;DHT22;20011;51.510;9.942;2024-03-08T01:45:57;3.40;99.90
33673;DHT22;20011;51.510;9.942;2024-03-08T01:48:27;3.50;99.90
33673;DHT22;20011;51.510;9.942;2024-03-08T01:50:57;3.60;99.90
33673;DHT22;20011;51.510;9.942;2024-03-08T01:53:24;3.90;99.90
33673;DHT22;20011;51.510;9.942;2024-03-08T01:55:56;3.90;99.90
33673;DHT22;20011;51.510;9.942;2024-03-08T01:58:26;3.80;99.90
33673;DHT22;20011;51.510;9.942;2024-03-08T02:00:56;3.90;99.90
33673;DHT22;20011;51.510;9.942;2024-03-08T02:03:25;3.90;99.90
33673;DHT22;20011;51.510;9.942;2024-03-08T02:05:52;4.00;99.90
33673;DHT22;20011;51.510;9.942;2024-03-08T02:08:19;4.20;99.90
33673;DHT22;20011;51.510;9.942;2024-03-08T02:10:49;4.30;99.90
33673;DHT22;20011;51.510;9.942;2024-03-08T02:13:17;4.10;99.90
33673;DHT22;20011;51.510;9.942;2024-03-08T02:15:56;4.10;99.90
33673;DHT22;20011;51.510;9.942;2024-03-08T02:18:23;4.10;99.90
33673;DHT22;20011;51.510;9.942;2024-03-08T02:21:01;4.00;99.90
33673;DHT22;20011;51.510;9.942;2024-03-08T02:23:32;3.70;99.90
33673;DHT22;20011;51.510;9.942;2024-03-08T02:26:00;3.60;99.90
33673;DHT22;20011;51.510;9.942;2024-03-08T02:28:27;3.40;99.90
33673;DHT22;20011;51.510;9.942;2024-03-08T02:30:56;3.50;99.90
33673;DHT22;20011;51.510;9.942;2024-03-08T02:33:26;3.20;99.90
33673;DHT22;20011;51.510;9.942;2024-03-08T02:35:54;3.40;99.90
33673;DHT22;20011;51.510;9.942;2024-03-08T02:38:22;3.40;99.90
33673;DHT22;20011;51.510;9.942;2024-03-08T02:40:52;3.40;99.90
33673;DHT22;20011;51.510;9.942;2024-03-08T02:43:20;3.20;99.90
33673;DHT22;20011;51.510;9.942;2024-03-08T02:45:52;3.40;99.90
33673;DHT22;20011;51.510;9.942;2024-03-08T02:48:22;3.10;99.90
33673;DHT22;20011;51.510;9.942;2024-03-08T02:50:49;3.20;99.90
33673;DHT22;20011;51.510;9.942;2024-03-08T02:53:18;3.30;99.90
33673;DHT22;20011;51.510;9.942;2024-03-08T02:55:49;3.60;99.90
33673;DHT22;20011;51.510;9.942;2024-03-08T02:58:16;3.30;99.90
33673;DHT22;20011;51.510;9.942;2024-03-08T03:00:43;3.20;99.90
33673;DHT22;20011;51.510;9.942;2024-03-08T03:03:11;3.20;99.90
33673;DHT22;20011;51.510;9.942;2024-03-08T03:05:38;3.30;99.90
33673;DHT22;20011;51.510;9.942;2024-03-08T03:08:13;3.40;99.90
33673;DHT22;20011;51.510;9.942;2024-03-08T03:10:40;3.40;99.90
33673;DHT22;20011;51.510;9.942;2024-03-08T03:13:08;3.20;99.90
33673;DHT22;20011;51.510;9.942;2024-03-08T03:15:35;3.40;99.90
33673;DHT22;20011;51.510;9.942;2024-03-08T03:18:03;3.40;99.90
33673;DHT22;20011;51.510;9.942;2024-03-08T03:20:32;3.40;99.90
33673;DHT22;20011;51.510;9.942;2024-03-08T03:23:00;3.10;99.90
33673;DHT22;20011;51.510;9.942;2024-03-08T03:25:29;3.20;99.90
33673;DHT22;20011;51.510;9.942;2024-03-08T03:28:04;3.50;99.90
33673;DHT22;20011;51.510;9.942;2024-03-08T03:30:31;3.20;99.90
33673;DHT22;20011;51.510;9.942;2024-03-08T03:33:01;3.40;99.90
33673;DHT22;20011;51.510;9.942;2024-03-08T03:35:29;3.10;99.90
33673;DHT22;20011;51.510;9.942;2024-03-08T03:37:56;2.90;99.90
33673;DHT22;20011;51.510;9.942;2024-03-08T03:40:36;3.10;99.90
33673;DHT22;20011;51.510;9.942;2024-03-08T03:43:03;3.20;99.90
33673;DHT22;20011;51.510;9.942;2024-03-08T03:45:31;3.20;99.90
33673;DHT22;20011;51.510;9.942;2024-03-08T03:48:04;3.20;99.90
33673;DHT22;20011;51.510;9.942;2024-03-08T03:50:34;3.00;99.90
33673;DHT22;20011;51.510;9.942;2024-03-08T03:53:03;2.90;99.90
33673;DHT22;20011;51.510;9.942;2024-03-08T03:55:30;2.80;99.90
33673;DHT22;20011;51.510;9.942;2024-03-08T03:57:57;2.80;99.90
33673;DHT22;20011;51.510;9.942;2024-03-08T04:00:26;2.60;99.90
33673;DHT22;20011;51.510;9.942;2024-03-08T04:02:54;2.80;99.90
33673;DHT22;20011;51.510;9.942;2024-03-08T04:05:23;3.20;99.90
33673;DHT22;20011;51.510;9.942;2024-03-08T04:07:50;2.90;99.90
33673;DHT22;20011;51.510;9.942;2024-03-08T04:10:17;2.70;99.90
33673;DHT22;20011;51.510;9.942;2024-03-08T04:12:45;3.30;99.90
33673;DHT22;20011;51.510;9.942;2024-03-08T04:15:12;2.90;99.90
33673;DHT22;20011;51.510;9.942;2024-03-08T04:17:39;2.70;99.90
33673;DHT22;20011;51.510;9.942;2024-03-08T04:20:06;2.90;99.90
33673;DHT22;20011;51.510;9.942;2024-03-08T04:22:44;3.00;99.90
33673;DHT22;20011;51.510;9.942;2024-03-08T04:25:13;2.80;99.90
33673;DHT22;20011;51.510;9.942;2024-03-08T04:27:41;2.80;99.90
33673;DHT22;20011;51.510;9.942;2024-03-08T04:30:08;2.80;99.90
33673;DHT22;20011;51.510;9.942;2024-03-08T04:32:36;2.90;99.90
33673;DHT22;20011;51.510;9.942;2024-03-08T04:35:03;3.00;99.90
33673;DHT22;20011;51.510;9.942;2024-03-08T04:37:31;2.70;99.90
33673;DHT22;20011;51.510;9.942;2024-03-08T04:39:59;2.80;99.90
33673;DHT22;20011;51.510;9.942;2024-03-08T04:42:27;3.00;99.90
33673;DHT22;20011;51.510;9.942;2024-03-08T04:44:56;2.80;99.90
33673;DHT22;20011;51.510;9.942;2024-03-08T04:47:24;2.90;99.90
33673;DHT22;20011;51.510;9.942;2024-03-08T04:49:52;3.00;99.90
33673;DHT22;20011;51.510;9.942;2024-03-08T04:52:18;2.90;99.90
33673;DHT22;20011;51.510;9.942;2024-03-08T04:54:45;3.00;99.90
33673;DHT22;20011;51.510;9.942;2024-03-08T04:57:13;3.00;99.90
33673;DHT22;20011;51.510;9.942;2024-03-08T04:59:40;2.90;99.90
33673;DHT22;20011;51.510;9.942;2024-03-08T05:02:07;2.80;99.90
33673;DHT22;20011;51.510;9.942;2024-03-08T05:04:34;2.70;99.90
33673;DHT22;20011;51.510;9.942;2024-03-08T05:07:02;2.70;99.90
33673;DHT22;20011;51.510;9.942;2024-03-08T05:09:29;2.60;99.90
33673;DHT22;20011;51.510;9.942;2024-03-08T05:11:59;2.40;99.90
33673;DHT22;20011;51.510;9.942;2024-03-08T05:14:26;2.80;99.90
33673;DHT22;20011;51.510;9.942;2024-03-08T05:16:53;2.60;99.90
33673;DHT22;20011;51.510;9.942;2024-03-08T05:19:20;2.50;99.90
33673;DHT22;20011;51.510;9.942;2024-03-08T05:21:48;2.50;99.90
33673;DHT22;20011;51.510;9.942;2024-03-08T05:24:16;2.60;99.90
33673;DHT22;20011;51.510;9.942;2024-03-08T05:26:46;2.80;99.90
33673;DHT22;20011;51.510;9.942;2024-03-08T05:29:13;3.00;99.90
33673;DHT22;20011;51.510;9.942;2024-03-08T05:31:48;2.60;99.90
33673;DHT22;20011;51.510;9.942;2024-03-08T05:34:18;2.70;99.90
33673;DHT22;20011;51.510;9.942;2024-03-08T05:36:49;2.60;99.90
33673;DHT22;20011;51.510;9.942;2024-03-08T05:39:21;2.70;99.90
33673;DHT22;20011;51.510;9.942;2024-03-08T05:41:49;2.80;99.90
33673;DHT22;20011;51.510;9.942;2024-03-08T05:44:16;2.80;99.90
33673;DHT22;20011;51.510;9.942;2024-03-08T05:46:46;2.90;99.90
33673;DHT22;20011;51.510;9.942;2024-03-08T05:49:14;2.80;99.90
33673;DHT22;20011;51.510;9.942;2024-03-08T05:51:41;2.70;99.90
33673;DHT22;20011;51.510;9.942;2024-03-08T05:54:10;2.60;99.90
33673;DHT22;20011;51.510;9.942;2024-03-08T05:56:39;3.00;99.90
33673;DHT22;20011;51.510;9.942;2024-03-08T05:59:12;2.60;99.90
33673;DHT22;20011;51.510;9.942;2024-03-08T06:01:40;2.80;99.90
33673;DHT22;20011;51.510;9.942;2024-03-08T06:04:09;2.50;99.90
33673;DHT22;20011;51.510;9.942;2024-03-08T06:06:39;2.30;99.90
33673;DHT22;20011;51.510;9.942;2024-03-08T06:09:07;2.60;99.90
33673;DHT22;20011;51.510;9.942;2024-03-08T06:11:41;2.90;99.90
33673;DHT22;20011;51.510;9.942;2024-03-08T06:14:09;2.50;99.90
33673;DHT22;20011;51.510;9.942;2024-03-08T06:16:36;2.80;99.90
33673;DHT22;20011;51.510;9.942;2024-03-08T06:19:04;2.70;99.90
33673;DHT22;20011;51.510;9.942;2024-03-08T06:21:32;2.60;99.90
33673;DHT22;20011;51.510;9.942;2024-03-08T06:23:59;2.80;99.90
33673;DHT22;20011;51.510;9.942;2024-03-08T06:26:27;3.10;99.90
33673;DHT22;20011;51.510;9.942;2024-03-08T06:28:58;2.80;99.90
33673;DHT22;20011;51.510;9.942;2024-03-08T06:31:25;2.70;99.90
33673;DHT22;20011;51.510;9.942;2024-03-08T06:33:52;3.10;99.90
33673;DHT22;20011;51.510;9.942;2024-03-08T06:36:22;2.90;99.90
33673;DHT22;20011;51.510;9.942;2024-03-08T06:38:50;3.10;99.90
33673;DHT22;20011;51.510;9.942;2024-03-08T06:41:17;3.00;99.90
33673;DHT22;20011;51.510;9.942;2024-03-08T06:43:46;3.10;99.90
33673;DHT22;20011;51.510;9.942;2024-03-08T06:46:15;3.10;99.90
33673;DHT22;20011;51.510;9.942;2024-03-08T06:48:42;2.90;99.90
33673;DHT22;20011;51.510;9.942;2024-03-08T06:51:09;3.00;99.90
33673;DHT22;20011;51.510;9.942;2024-03-08T06:53:38;3.10;99.90
33673;DHT22;20011;51.510;9.942;2024-03-08T06:56:05;3.10;99.90
33673;DHT22;20011;51.510;9.942;2024-03-08T06:58:34;3.10;99.90
33673;DHT22;20011;51.510;9.942;2024-03-08T07:01:01;3.70;99.90
33673;DHT22;20011;51.510;9.942;2024-03-08T07:03:31;3.30;99.90
33673;DHT22;20011;51.510;9.942;2024-03-08T07:05:59;3.40;99.90
33673;DHT22;20011;51.510;9.942;2024-03-08T07:08:29;3.40;99.90
33673;DHT22;20011;51.510;9.942;2024-03-08T07:10:56;3.50;99.90
33673;DHT22;20011;51.510;9.942;2024-03-08T07:13:26;3.50;99.90
33673;DHT22;20011;51.510;9.942;2024-03-08T07:15:55;3.60;99.90
33673;DHT22;20011;51.510;9.942;2024-03-08T07:18:22;3.70;99.90
33673;DHT22;20011;51.510;9.942;2024-03-08T07:20:49;3.80;99.90
33673;DHT22;20011;51.510;9.942;2024-03-08T07:23:16;3.80;99.90
33673;DHT22;20011;51.510;9.942;2024-03-08T07:26:04;3.90;99.90
33673;DHT22;20011;51.510;9.942;2024-03-08T07:28:31;4.00;99.90
33673;DHT22;20011;51.510;9.942;2024-03-08T07:30:58;4.10;99.90
33673;DHT22;20011;51.510;9.942;2024-03-08T07:33:39;4.20;99.90
33673;DHT22;20011;51.510;9.942;2024-03-08T07:36:07;4.10;99.90
33673;DHT22;20011;51.510;9.942;2024-03-08T07:38:35;4.20;99.90
33673;DHT22;20011;51.510;9.942;2024-03-08T07:41:02;4.20;99.90
33673;DHT22;20011;51.510;9.942;2024-03-08T07:43:31;4.20;99.90
33673;DHT22;20011;51.510;9.942;2024-03-08T07:45:59;4.30;99.90
33673;DHT22;20011;51.510;9.942;2024-03-08T07:48:27;4.30;99.90
33673;DHT22;20011;51.510;9.942;2024-03-08T07:50:54;4.40;99.90
33673;DHT22;20011;51.510;9.942;2024-03-08T07:53:22;4.40;99.90
33673;DHT22;20011;51.510;9.942;2024-03-08T07:55:51;4.40;99.90
33673;DHT22;20011;51.510;9.942;2024-03-08T07:58:18;4.40;99.90
33673;DHT22;20011;51.510;9.942;2024-03-08T08:00:45;4.50;99.90
33673;DHT22;20011;51.510;9.942;2024-03-08T08:03:13;4.50;99.90
33673;DHT22;20011;51.510;9.942;2024-03-08T08:05:40;4.50;99.90
33673;DHT22;20011;51.510;9.942;2024-03-08T08:08:10;4.60;99.90
33673;DHT22;20011;51.510;9.942;2024-03-08T08:10:38;4.50;99.90
33673;DHT22;20011;51.510;9.942;2024-03-08T08:13:05;4.70;99.90
33673;DHT22;20011;51.510;9.942;2024-03-08T08:15:32;4.70;99.90
33673;DHT22;20011;51.510;9.942;2024-03-08T08:18:01;4.80;99.90
33673;DHT22;20011;51.510;9.942;2024-03-08T08:20:33;4.70;99.90
33673;DHT22;20011;51.510;9.942;2024-03-08T08:23:00;4.90;99.90
33673;DHT22;20011;51.510;9.942;2024-03-08T08:25:27;5.00;99.90
33673;DHT22;20011;51.510;9.942;2024-03-08T08:27:54;5.00;99.90
33673;DHT22;20011;51.510;9.942;2024-03-08T08:30:21;5.00;99.90
33673;DHT22;20011;51.510;9.942;2024-03-08T08:32:48;5.00;99.90
33673;DHT22;20011;51.510;9.942;2024-03-08T08:35:16;4.90;99.90
33673;DHT22;20011;51.510;9.942;2024-03-08T08:37:45;4.90;99.90
33673;DHT22;20011;51.510;9.942;2024-03-08T08:40:12;5.00;99.90
33673;DHT22;20011;51.510;9.942;2024-03-08T08:42:42;5.10;99.90
33673;DHT22;20011;51.510;9.942;2024-03-08T08:45:10;5.00;99.90
33673;DHT22;20011;51.510;9.942;2024-03-08T08:47:44;5.10;99.90
33673;DHT22;20011;51.510;9.942;2024-03-08T08:50:12;5.10;99.90
33673;DHT22;20011;51.510;9.942;2024-03-08T08:52:40;5.20;99.90
33673;DHT22;20011;51.510;9.942;2024-03-08T08:55:07;5.30;99.90
33673;DHT22;20011;51.510;9.942;2024-03-08T08:57:35;5.30;99.90
33673;DHT22;20011;51.510;9.942;2024-03-08T09:00:03;5.30;99.90
33673;DHT22;20011;51.510;9.942;2024-03-08T09:02:41;5.40;99.90
33673;DHT22;20011;51.510;9.942;2024-03-08T09:05:09;5.40;99.90
33673;DHT22;20011;51.510;9.942;2024-03-08T09:07:36;5.50;99.90
33673;DHT22;20011;51.510;9.942;2024-03-08T09:10:04;5.50;99.90
33673;DHT22;20011;51.510;9.942;2024-03-08T09:12:34;5.50;99.90
33673;DHT22;20011;51.510;9.942;2024-03-08T09:15:01;5.60;99.90
33673;DHT22;20011;51.510;9.942;2024-03-08T09:17:28;5.60;99.90
33673;DHT22;20011;51.510;9.942;2024-03-08T09:19:55;5.60;99.90
33673;DHT22;20011;51.510;9.942;2024-03-08T09:22:24;5.60;99.90
33673;DHT22;20011;51.510;9.942;2024-03-08T09:24:52;5.70;99.90
33673;DHT22;20011;51.510;9.942;2024-03-08T09:27:19;5.70;99.90
33673;DHT22;20011;51.510;9.942;2024-03-08T09:29:46;5.70;99.90
33673;DHT22;20011;51.510;9.942;2024-03-08T09:32:13;5.90;99.90
33673;DHT22;20011;51.510;9.942;2024-03-08T09:34:40;5.90;99.90
33673;DHT22;20011;51.510;9.942;2024-03-08T09:37:07;6.00;99.90
33673;DHT22;20011;51.510;9.942;2024-03-08T09:39:35;6.00;99.90
33673;DHT22;20011;51.510;9.942;2024-03-08T09:42:02;6.10;99.90
33673;DHT22;20011;51.510;9.942;2024-03-08T09:44:30;6.10;99.90
33673;DHT22;20011;51.510;9.942;2024-03-08T09:46:59;6.10;99.90
33673;DHT22;20011;51.510;9.942;2024-03-08T09:49:26;6.10;99.90
33673;DHT22;20011;51.510;9.942;2024-03-08T09:51:53;6.10;99.90
33673;DHT22;20011;51.510;9.942;2024-03-08T09:54:22;6.10;99.90
33673;DHT22;20011;51.510;9.942;2024-03-08T09:56:52;6.10;99.90
33673;DHT22;20011;51.510;9.942;2024-03-08T09:59:19;6.20;99.90
33673;DHT22;20011;51.510;9.942;2024-03-08T10:02:13;6.30;99.90
33673;DHT22;20011;51.510;9.942;2024-03-08T10:04:42;6.30;99.90
33673;DHT22;20011;51.510;9.942;2024-03-08T10:07:09;6.30;99.90
33673;DHT22;20011;51.510;9.942;2024-03-08T10:09:36;6.30;99.90
33673;DHT22;20011;51.510;9.942;2024-03-08T10:12:04;6.40;99.90
33673;DHT22;20011;51.510;9.942;2024-03-08T10:14:32;6.40;99.90
33673;DHT22;20011;51.510;9.942;2024-03-08T10:16:59;6.40;99.90
33673;DHT22;20011;51.510;9.942;2024-03-08T10:19:28;6.40;99.90
33673;DHT22;20011;51.510;9.942;2024-03-08T10:21:58;6.40;99.90
33673;DHT22;20011;51.510;9.942;2024-03-08T10:24:26;6.40;99.90
33673;DHT22;20011;51.510;9.942;2024-03-08T10:27:02;6.50;99.90
33673;DHT22;20011;51.510;9.942;2024-03-08T10:29:32;6.50;99.90
33673;DHT22;20011;51.510;9.942;2024-03-08T10:31:59;6.60;99.90
33673;DHT22;20011;51.510;9.942;2024-03-08T10:34:27;6.60;99.90
33673;DHT22;20011;51.510;9.942;2024-03-08T10:37:02;6.60;99.90
33673;DHT22;20011;51.510;9.942;2024-03-08T10:39:35;6.70;99.90
33673;DHT22;20011;51.510;9.942;2024-03-08T10:42:05;6.80;99.90
33673;DHT22;20011;51.510;9.942;2024-03-08T10:44:51;6.80;99.90
33673;DHT22;20011;51.510;9.942;2024-03-08T10:47:26;6.90;99.90
33673;DHT22;20011;51.510;9.942;2024-03-08T10:50:08;6.90;99.90
33673;DHT22;20011;51.510;9.942;2024-03-08T10:52:37;6.90;99.90
33673;DHT22;20011;51.510;9.942;2024-03-08T10:55:05;7.00;99.90
33673;DHT22;20011;51.510;9.942;2024-03-08T10:57:39;7.00;99.90
33673;DHT22;20011;51.510;9.942;2024-03-08T11:00:08;7.00;99.90
33673;DHT22;20011;51.510;9.942;2024-03-08T11:02:38;7.10;99.90
33673;DHT22;20011;51.510;9.942;2024-03-08T11:05:10;7.10;99.90
33673;DHT22;20011;51.510;9.942;2024-03-08T11:07:43;7.10;99.90
33673;DHT22;20011;51.510;9.942;2024-03-08T11:10:20;7.10;99.90
33673;DHT22;20011;51.510;9.942;2024-03-08T11:12:47;7.10;99.90
33673;DHT22;20011;51.510;9.942;2024-03-08T11:15:15;7.20;99.90
33673;DHT22;20011;51.510;9.942;2024-03-08T11:17:47;7.10;99.90
33673;DHT22;20011;51.510;9.942;2024-03-08T11:20:19;7.10;99.90
33673;DHT22;20011;51.510;9.942;2024-03-08T11:23:01;7.20;99.90
33673;DHT22;20011;51.510;9.942;2024-03-08T11:25:39;7.20;99.90
33673;DHT22;20011;51.510;9.942;2024-03-08T11:28:12;7.30;99.90
33673;DHT22;20011;51.510;9.942;2024-03-08T11:33:27;7.40;99.90
33673;DHT22;20011;51.510;9.942;2024-03-08T11:36:24;7.40;99.90
33673;DHT22;20011;51.510;9.942;2024-03-08T11:38:52;7.60;99.90
33673;DHT22;20011;51.510;9.942;2024-03-08T11:41:23;7.60;99.90
33673;DHT22;20011;51.510;9.942;2024-03-08T11:44:02;7.70;99.90
33673;DHT22;20011;51.510;9.942;2024-03-08T11:46:32;7.80;99.90
33673;DHT22;20011;51.510;9.942;2024-03-08T11:49:00;7.80;99.90
33673;DHT22;20011;51.510;9.942;2024-03-08T11:51:27;7.80;99.90
33673;DHT22;20011;51.510;9.942;2024-03-08T11:53:54;7.80;99.90
33673;DHT22;20011;51.510;9.942;2024-03-08T11:56:22;7.90;99.90
33673;DHT22;20011;51.510;9.942;2024-03-08T11:58:54;7.90;99.60
33673;DHT22;20011;51.510;9.942;2024-03-08T12:01:25;7.80;99.90
33673;DHT22;20011;51.510;9.942;2024-03-08T12:03:53;7.70;98.90
33673;DHT22;20011;51.510;9.942;2024-03-08T12:06:21;7.80;99.00
33673;DHT22;20011;51.510;9.942;2024-03-08T12:08:48;7.80;98.70
33673;DHT22;20011;51.510;9.942;2024-03-08T12:11:17;7.80;99.50
33673;DHT22;20011;51.510;9.942;2024-03-08T12:13:46;7.90;99.30
33673;DHT22;20011;51.510;9.942;2024-03-08T12:16:17;7.90;99.40
33673;DHT22;20011;51.510;9.942;2024-03-08T12:18:45;8.00;99.90
33673;DHT22;20011;51.510;9.942;2024-03-08T12:21:12;8.00;99.60
33673;DHT22;20011;51.510;9.942;2024-03-08T12:23:47;8.00;99.50
33673;DHT22;20011;51.510;9.942;2024-03-08T12:26:25;8.00;99.40
33673;DHT22;20011;51.510;9.942;2024-03-08T12:28:53;8.10;99.40
33673;DHT22;20011;51.510;9.942;2024-03-08T12:31:21;8.10;99.70
33673;DHT22;20011;51.510;9.942;2024-03-08T12:36:16;8.10;99.40
33673;DHT22;20011;51.510;9.942;2024-03-08T12:38:44;8.10;99.10
33673;DHT22;20011;51.510;9.942;2024-03-08T12:41:18;8.20;99.30
33673;DHT22;20011;51.510;9.942;2024-03-08T12:43:46;8.20;98.70
33673;DHT22;20011;51.510;9.942;2024-03-08T12:46:17;8.10;99.00
33673;DHT22;20011;51.510;9.942;2024-03-08T12:48:44;8.20;99.20
33673;DHT22;20011;51.510;9.942;2024-03-08T12:51:14;8.20;99.60
33673;DHT22;20011;51.510;9.942;2024-03-08T12:53:43;8.20;98.80
33673;DHT22;20011;51.510;9.942;2024-03-08T12:56:15;8.20;98.50
33673;DHT22;20011;51.510;9.942;2024-03-08T12:58:46;8.20;98.70
33673;DHT22;20011;51.510;9.942;2024-03-08T13:01:13;8.20;98.60
33673;DHT22;20011;51.510;9.942;2024-03-08T13:03:40;8.10;98.40
33673;DHT22;20011;51.510;9.942;2024-03-08T13:06:07;8.10;98.40
33673;DHT22;20011;51.510;9.942;2024-03-08T13:08:37;8.20;99.00
33673;DHT22;20011;51.510;9.942;2024-03-08T13:11:08;8.20;98.90
33673;DHT22;20011;51.510;9.942;2024-03-08T13:13:38;8.30;99.90
33673;DHT22;20011;51.510;9.942;2024-03-08T13:16:07;8.40;99.80
33673;DHT22;20011;51.510;9.942;2024-03-08T13:18:38;8.50;99.60
33673;DHT22;20011;51.510;9.942;2024-03-08T13:21:05;8.40;98.40
33673;DHT22;20011;51.510;9.942;2024-03-08T13:23:40;8.40;98.20
33673;DHT22;20011;51.510;9.942;2024-03-08T13:26:08;8.50;98.70
33673;DHT22;20011;51.510;9.942;2024-03-08T13:28:35;8.50;98.80
33673;DHT22;20011;51.510;9.942;2024-03-08T13:31:05;8.50;98.50
33673;DHT22;20011;51.510;9.942;2024-03-08T13:33:33;8.50;98.40
33673;DHT22;20011;51.510;9.942;2024-03-08T13:36:09;8.60;98.80
33673;DHT22;20011;51.510;9.942;2024-03-08T13:38:46;8.60;98.40
33673;DHT22;20011;51.510;9.942;2024-03-08T13:41:15;8.60;97.70
33673;DHT22;20011;51.510;9.942;2024-03-08T13:43:46;8.50;97.50
33673;DHT22;20011;51.510;9.942;2024-03-08T13:46:17;8.60;97.80
33673;DHT22;20011;51.510;9.942;2024-03-08T13:48:44;8.70;98.60
33673;DHT22;20011;51.510;9.942;2024-03-08T13:51:11;8.70;98.60
33673;DHT22;20011;51.510;9.942;2024-03-08T13:53:42;8.80;98.60
33673;DHT22;20011;51.510;9.942;2024-03-08T13:56:09;8.80;98.60
33673;DHT22;20011;51.510;9.942;2024-03-08T13:58:39;8.80;98.40
33673;DHT22;20011;51.510;9.942;2024-03-08T14:01:07;8.80;98.20
33673;DHT22;20011;51.510;9.942;2024-03-08T14:03:39;8.80;98.30
33673;DHT22;20011;51.510;9.942;2024-03-08T14:06:09;8.80;98.10
33673;DHT22;20011;51.510;9.942;2024-03-08T14:08:47;8.80;98.00
33673;DHT22;20011;51.510;9.942;2024-03-08T14:11:14;8.80;97.70
33673;DHT22;20011;51.510;9.942;2024-03-08T14:13:42;8.80;97.80
33673;DHT22;20011;51.510;9.942;2024-03-08T14:16:12;8.80;97.70
33673;DHT22;20011;51.510;9.942;2024-03-08T14:18:39;8.90;97.80
33673;DHT22;20011;51.510;9.942;2024-03-08T14:21:07;8.90;97.50
33673;DHT22;20011;51.510;9.942;2024-03-08T14:23:40;8.80;97.30
33673;DHT22;20011;51.510;9.942;2024-03-08T14:26:07;8.90;97.60
33673;DHT22;20011;51.510;9.942;2024-03-08T14:28:35;8.90;97.80
33673;DHT22;20011;51.510;9.942;2024-03-08T14:31:03;8.90;97.70
33673;DHT22;20011;51.510;9.942;2024-03-08T14:33:33;8.90;98.10
33673;DHT22;20011;51.510;9.942;2024-03-08T14:36:00;8.90;97.70
33673;DHT22;20011;51.510;9.942;2024-03-08T14:38:28;8.90;97.30
33673;DHT22;20011;51.510;9.942;2024-03-08T14:40:55;8.90;97.20
33673;DHT22;20011;51.510;9.942;2024-03-08T14:43:23;9.00;97.10
33673;DHT22;20011;51.510;9.942;2024-03-08T14:45:51;9.00;97.00
33673;DHT22;20011;51.510;9.942;2024-03-08T14:48:19;9.00;97.30
33673;DHT22;20011;51.510;9.942;2024-03-08T14:50:46;9.00;97.10
33673;DHT22;20011;51.510;9.942;2024-03-08T14:53:14;8.90;97.00
33673;DHT22;20011;51.510;9.942;2024-03-08T14:55:43;8.90;96.90
33673;DHT22;20011;51.510;9.942;2024-03-08T14:58:15;9.00;96.90
33673;DHT22;20011;51.510;9.942;2024-03-08T15:00:42;8.90;96.90
33673;DHT22;20011;51.510;9.942;2024-03-08T15:03:11;9.00;97.30
33673;DHT22;20011;51.510;9.942;2024-03-08T15:05:44;9.10;97.30
33673;DHT22;20011;51.510;9.942;2024-03-08T15:08:16;9.10;96.80
33673;DHT22;20011;51.510;9.942;2024-03-08T15:10:51;9.10;97.10
33673;DHT22;20011;51.510;9.942;2024-03-08T15:13:22;9.10;96.90
33673;DHT22;20011;51.510;9.942;2024-03-08T15:15:55;9.10;97.00
33673;DHT22;20011;51.510;9.942;2024-03-08T15:18:24;9.10;97.20
33673;DHT22;20011;51.510;9.942;2024-03-08T15:21:05;9.00;97.20
33673;DHT22;20011;51.510;9.942;2024-03-08T15:23:34;9.10;97.70
33673;DHT22;20011;51.510;9.942;2024-03-08T15:26:02;9.10;98.00
33673;DHT22;20011;51.510;9.942;2024-03-08T15:28:35;9.10;97.80
33673;DHT22;20011;51.510;9.942;2024-03-08T15:31:07;9.20;97.30
33673;DHT22;20011;51.510;9.942;2024-03-08T15:33:36;9.10;96.90
33673;DHT22;20011;51.510;9.942;2024-03-08T15:36:19;9.10;96.80
33673;DHT22;20011;51.510;9.942;2024-03-08T15:38:48;9.20;97.00
33673;DHT22;20011;51.510;9.942;2024-03-08T15:41:19;9.20;97.20
33673;DHT22;20011;51.510;9.942;2024-03-08T15:43:48;9.20;97.20
33673;DHT22;20011;51.510;9.942;2024-03-08T15:46:17;9.10;97.50
33673;DHT22;20011;51.510;9.942;2024-03-08T15:48:49;9.10;97.30
33673;DHT22;20011;51.510;9.942;2024-03-08T15:51:19;9.00;96.90
33673;DHT22;20011;51.510;9.942;2024-03-08T15:53:49;9.00;97.20
33673;DHT22;20011;51.510;9.942;2024-03-08T15:56:24;9.00;97.50
33673;DHT22;20011;51.510;9.942;2024-03-08T15:58:53;9.00;97.50
33673;DHT22;20011;51.510;9.942;2024-03-08T16:01:21;9.00;97.50